Terminal Aerodrome Forecast
Issued by NWS Shreveport, LA

Home | Current Version | Previous Version | Text Only | Print | Product List | Glossary On
Versions: 1 2 3 4 5 6 7 8 9 10 11 12 13 14 15 16 17 18 19 20
000
FTUS44 KSHV 010300 AAA
TAFTXK
TAF AMD
KTXK 010304Z 0103/0124 VRB04KT P6SM OVC040
      TEMPO 0103/0106 P6SM -RA OVC040
     FM010600 06005KT 5SM -RA BR OVC015
     FM011100 05004KT 3SM RA BR OVC008
     FM012000 05004KT P6SM SCT010 OVC020=

USA.gov is the U.S. government's official web portal to all federal, state and local government web resources and services.